Time;durP1;ratioP1;P1;durP2;ratioP2;P2;SDS_P1;SDS_P2;PMS_P1;PMS_P2;Temp;Humidity;BMP_temperature;BMP_pressure;BME280_temperature;BME280_humidity;BME280_pressure;Samples;Min_cycle;Max_cycle;Signal;HPM_P1;HPM_P2
2023/06/11 00:02:08;;;;;;;12.70;6.87;;;20.60;1.00;;;;;;4971321;28;20408;-78
2023/06/11 00:04:34;;;;;;;14.65;9.20;;;20.70;1.00;;;;;;4971475;28;20396;-78
2023/06/11 00:07:02;;;;;;;13.00;7.30;;;20.70;1.00;;;;;;4971631;28;20863;-78
2023/06/11 00:09:28;;;;;;;11.60;6.65;;;20.70;1.00;;;;;;4971905;28;20498;-78
2023/06/11 00:11:54;;;;;;;12.00;6.40;;;20.60;1.00;;;;;;4974623;28;20499;-78
2023/06/11 00:14:23;;;;;;;10.90;6.20;;;20.60;1.00;;;;;;4970524;28;20424;-78
2023/06/11 00:16:49;;;;;;;11.07;6.07;;;20.70;1.00;;;;;;4970747;28;20415;-78
2023/06/11 00:19:17;;;;;;;11.20;5.50;;;20.70;1.00;;;;;;4966478;28;20418;-78
2023/06/11 00:21:43;;;;;;;11.50;6.00;;;20.60;1.00;;;;;;4962023;28;20526;-78
2023/06/11 00:24:13;;;;;;;10.88;5.60;;;20.60;1.00;;;;;;4952427;28;20409;-78
2023/06/11 00:26:40;;;;;;;14.45;5.90;;;20.60;1.00;;;;;;4961131;28;20402;-78
2023/06/11 00:29:06;;;;;;;12.43;5.95;;;20.40;1.00;;;;;;4991457;28;20513;-78
2023/06/11 00:31:32;;;;;;;11.52;6.38;;;20.30;1.00;;;;;;4981221;28;20523;-77
2023/06/11 00:34:01;;;;;;;11.00;6.00;;;20.20;99.90;;;;;;4971582;28;20496;-78
2023/06/11 00:36:27;;;;;;;12.40;6.20;;;19.90;99.90;;;;;;4971107;28;20396;-78
2023/06/11 00:38:53;;;;;;;11.48;5.82;;;19.80;1.00;;;;;;4975833;28;20473;-78
2023/06/11 00:41:20;;;;;;;13.53;6.60;;;19.60;99.90;;;;;;4989905;28;20383;-78
2023/06/11 00:43:48;;;;;;;11.80;6.45;;;19.50;1.00;;;;;;4988867;28;20407;-78
2023/06/11 00:46:16;;;;;;;11.40;5.72;;;19.50;1.00;;;;;;4990339;28;20406;-78
2023/06/11 00:48:42;;;;;;;12.52;6.22;;;19.60;1.00;;;;;;4977609;28;20440;-78
2023/06/11 00:51:10;;;;;;;12.17;6.00;;;19.60;1.00;;;;;;4970217;28;20436;-78
2023/06/11 00:53:36;;;;;;;12.00;6.00;;;19.60;1.00;;;;;;4970175;28;20415;-78
2023/06/11 00:56:02;;;;;;;11.10;5.93;;;19.60;1.00;;;;;;4969328;28;20523;-78
2023/06/11 00:58:29;;;;;;;12.80;6.00;;;19.70;99.90;;;;;;4952726;28;20478;-78
2023/06/11 01:00:57;;;;;;;11.57;6.20;;;19.70;99.90;;;;;;4969524;28;20869;-78
2023/06/11 01:03:26;;;;;;;10.88;5.60;;;19.70;99.90;;;;;;4969323;28;20773;-78
2023/06/11 01:06:17;;;;;;;13.70;6.28;;;19.70;1.00;;;;;;4969951;28;20419;-78
2023/06/11 01:08:44;;;;;;;11.45;6.20;;;19.70;99.90;;;;;;4952487;28;20443;-78
2023/06/11 01:11:21;;;;;;;11.38;6.20;;;19.70;99.90;;;;;;4969546;28;20975;-78
2023/06/11 01:13:47;;;;;;;11.43;5.30;;;19.60;1.00;;;;;;4968636;28;20449;-78
2023/06/11 01:16:27;;;;;;;10.30;5.50;;;19.60;99.90;;;;;;4967912;28;20423;-78
2023/06/11 01:19:03;;;;;;;13.33;6.50;;;19.60;1.00;;;;;;4969007;28;20416;-78
2023/06/11 01:21:46;;;;;;;12.80;6.35;;;19.50;1.00;;;;;;4968157;28;20504;-78
2023/06/11 01:24:17;;;;;;;11.07;6.10;;;19.40;99.90;;;;;;4955437;28;20408;-78
2023/06/11 01:27:15;;;;;;;13.80;6.67;;;19.30;99.90;;;;;;4969172;28;21309;-78
2023/06/11 01:29:45;;;;;;;12.60;6.22;;;19.20;1.00;;;;;;4942969;29;20425;-78
2023/06/11 01:32:12;;;;;;;12.15;6.32;;;19.20;1.00;;;;;;4963020;28;20436;-78
2023/06/11 01:34:41;;;;;;;11.30;5.70;;;19.20;1.00;;;;;;4969311;28;20404;-77
2023/06/11 01:37:09;;;;;;;11.43;6.30;;;19.30;99.90;;;;;;4969722;28;20919;-77
2023/06/11 01:39:34;;;;;;;12.57;6.40;;;19.30;99.90;;;;;;4968999;28;20420;-77
2023/06/11 01:42:00;;;;;;;13.13;7.10;;;19.30;1.00;;;;;;4969090;28;20408;-77
2023/06/11 01:44:26;;;;;;;11.93;6.53;;;19.20;1.00;;;;;;4969134;28;20443;-77
2023/06/11 01:46:52;;;;;;;11.20;6.47;;;19.20;1.00;;;;;;4968956;28;20738;-77
2023/06/11 01:49:17;;;;;;;12.37;6.90;;;19.10;1.00;;;;;;4969490;28;20428;-77
2023/06/11 01:51:43;;;;;;;12.53;6.17;;;19.00;99.90;;;;;;4968241;28;20427;-77
2023/06/11 01:54:08;;;;;;;14.90;6.90;;;18.80;99.90;;;;;;4970969;28;20471;-79
2023/06/11 01:56:34;;;;;;;11.60;6.40;;;18.60;99.90;;;;;;4969413;28;20424;-78
2023/06/11 01:59:00;;;;;;;12.35;6.70;;;18.50;1.00;;;;;;4968133;28;20430;-78
2023/06/11 02:01:28;;;;;;;12.80;6.22;;;18.40;6.70;;;;;;4968291;28;20400;-78
2023/06/11 02:03:54;;;;;;;11.15;5.95;;;18.30;99.90;;;;;;4967933;28;20416;-78
2023/06/11 02:06:20;;;;;;;13.02;6.10;;;18.40;99.90;;;;;;4968948;28;21285;-78
2023/06/11 02:08:45;;;;;;;11.68;6.10;;;18.30;99.90;;;;;;4968043;28;20958;-78
2023/06/11 02:11:11;;;;;;;13.60;6.43;;;18.50;99.90;;;;;;4967963;28;20419;-78
2023/06/11 02:13:36;;;;;;;12.73;6.83;;;18.60;99.90;;;;;;4968757;28;20428;-78
2023/06/11 02:16:02;;;;;;;13.67;6.90;;;18.60;1.00;;;;;;4969325;28;20908;-78
2023/06/11 02:18:27;;;;;;;12.27;6.70;;;18.70;1.00;;;;;;4967433;28;20514;-78
2023/06/11 02:20:53;;;;;;;11.17;6.20;;;18.80;1.00;;;;;;4967189;28;20498;-78
2023/06/11 02:23:20;;;;;;;13.23;6.20;;;18.80;99.90;;;;;;4965748;28;20487;-78
2023/06/11 02:25:45;;;;;;;12.75;5.82;;;18.80;99.90;;;;;;4971950;28;20451;-78
2023/06/11 02:28:11;;;;;;;12.70;6.10;;;18.80;99.90;;;;;;4974850;28;20793;-78
2023/06/11 02:30:36;;;;;;;13.30;6.80;;;18.80;99.90;;;;;;4975746;28;20441;-78
2023/06/11 02:33:02;;;;;;;12.15;6.50;;;18.80;99.90;;;;;;4977186;28;20438;-77
2023/06/11 02:35:27;;;;;;;12.07;6.32;;;18.70;1.00;;;;;;4972770;28;20444;-77
2023/06/11 02:37:54;;;;;;;11.57;6.30;;;18.70;1.00;;;;;;4977340;28;20419;-77
2023/06/11 02:40:21;;;;;;;11.35;6.00;;;18.70;99.90;;;;;;4982598;28;20402;-79
2023/06/11 02:42:46;;;;;;;11.40;5.90;;;18.70;99.90;;;;;;4980892;28;20514;-78
2023/06/11 02:45:12;;;;;;;12.27;6.10;;;18.60;99.90;;;;;;4978592;28;20481;-78
2023/06/11 02:47:39;;;;;;;12.98;6.47;;;18.60;99.90;;;;;;4982402;28;20877;-78
2023/06/11 02:50:05;;;;;;;12.95;7.00;;;18.50;1.00;;;;;;4978639;28;20470;-78
2023/06/11 02:52:30;;;;;;;12.10;6.18;;;18.50;99.90;;;;;;4960744;28;20428;-78
2023/06/11 02:54:56;;;;;;;11.93;6.33;;;18.40;1.00;;;;;;4971461;28;20931;-78
2023/06/11 02:57:21;;;;;;;11.70;6.20;;;18.50;1.00;;;;;;4972531;28;20419;-78
2023/06/11 02:59:47;;;;;;;11.30;6.37;;;18.50;1.00;;;;;;4957458;28;20469;-78
2023/06/11 03:02:14;;;;;;;12.47;6.60;;;18.40;1.00;;;;;;4956308;28;20436;-78
2023/06/11 03:04:39;;;;;;;12.48;6.13;;;18.30;1.00;;;;;;4972864;28;20400;-78
2023/06/11 03:07:06;;;;;;;13.13;6.63;;;18.20;99.90;;;;;;4967662;28;21289;-78
2023/06/11 03:09:31;;;;;;;15.73;6.47;;;18.20;99.90;;;;;;4971357;28;20503;-78
2023/06/11 03:11:57;;;;;;;13.00;6.00;;;18.00;99.90;;;;;;4971975;28;20420;-78
2023/06/11 03:14:24;;;;;;;11.55;5.85;;;17.90;1.00;;;;;;4972073;28;20463;-78
2023/06/11 03:16:50;;;;;;;11.55;6.63;;;18.00;1.00;;;;;;4971479;28;20919;-78
2023/06/11 03:19:16;;;;;;;12.27;6.20;;;18.10;99.90;;;;;;4971947;28;20431;-78
2023/06/11 03:21:42;;;;;;;11.23;5.78;;;18.10;99.90;;;;;;4970955;28;20415;-78
2023/06/11 03:24:08;;;;;;;12.00;6.03;;;17.90;1.00;;;;;;4969981;28;20426;-78
2023/06/11 03:26:33;;;;;;;12.37;7.07;;;17.80;1.00;;;;;;4971324;28;20474;-78
2023/06/11 03:29:01;;;;;;;12.13;6.28;;;17.80;1.00;;;;;;4967586;28;20423;-78
2023/06/11 03:31:26;;;;;;;11.60;5.60;;;17.90;1.00;;;;;;4970378;28;20446;-78
2023/06/11 03:33:52;;;;;;;11.50;6.10;;;17.90;1.00;;;;;;4971350;28;20416;-78
2023/06/11 03:36:17;;;;;;;11.10;5.53;;;17.90;1.00;;;;;;4970835;28;21133;-78
2023/06/11 03:38:43;;;;;;;11.00;5.50;;;17.90;1.00;;;;;;4966785;28;20473;-78
2023/06/11 03:41:09;;;;;;;10.50;6.00;;;17.90;1.00;;;;;;4955269;28;20419;-78
2023/06/11 03:43:35;;;;;;;12.27;5.97;;;18.00;99.90;;;;;;4971460;28;20427;-78
2023/06/11 03:46:02;;;;;;;11.27;6.20;;;18.10;99.90;;;;;;4971370;28;21171;-78
2023/06/11 03:48:27;;;;;;;10.93;5.35;;;18.20;73.20;;;;;;4972638;28;20407;-78
2023/06/11 03:50:53;;;;;;;9.70;5.10;;;18.30;1.00;;;;;;4972075;28;20401;-78
2023/06/11 03:53:18;;;;;;;12.63;5.77;;;18.50;99.90;;;;;;4971122;28;20820;-78
2023/06/11 03:55:44;;;;;;;11.07;5.50;;;18.60;18.00;;;;;;4972026;28;20404;-78
2023/06/11 03:58:09;;;;;;;11.38;5.40;;;18.70;1.00;;;;;;4969354;28;20408;-78
2023/06/11 04:00:35;;;;;;;10.50;5.40;;;18.60;1.00;;;;;;4971658;28;20454;-77
2023/06/11 04:03:00;;;;;;;10.88;5.15;;;18.70;1.00;;;;;;4971057;28;20420;-78
2023/06/11 04:05:26;;;;;;;11.47;5.50;;;18.70;1.00;;;;;;4971870;28;20393;-78
2023/06/11 04:07:51;;;;;;;10.70;5.17;;;18.70;1.00;;;;;;4971469;28;20404;-78
2023/06/11 04:10:17;;;;;;;11.07;5.43;;;18.70;1.00;;;;;;4971539;28;20478;-78
2023/06/11 04:12:42;;;;;;;11.33;5.10;;;18.60;99.90;;;;;;4970454;28;20436;-78
2023/06/11 04:15:08;;;;;;;12.50;6.13;;;18.50;99.90;;;;;;4971458;28;20400;-78
2023/06/11 04:17:34;;;;;;;10.38;5.53;;;18.40;1.00;;;;;;4971439;28;20909;-78
2023/06/11 04:20:00;;;;;;;10.90;5.60;;;18.50;1.00;;;;;;4970968;28;20407;-78
2023/06/11 04:22:26;;;;;;;11.07;5.60;;;18.60;1.00;;;;;;4970409;28;20431;-78
2023/06/11 04:24:53;;;;;;;12.00;6.10;;;18.70;99.90;;;;;;4972338;28;20404;-78
2023/06/11 04:27:20;;;;;;;12.93;5.07;;;18.80;28.40;;;;;;4972278;28;20487;-78
2023/06/11 04:29:46;;;;;;;10.30;5.18;;;18.80;1.00;;;;;;4973184;28;20416;-79
2023/06/11 04:32:16;;;;;;;10.43;5.47;;;18.90;99.90;;;;;;4971393;28;20523;-79
2023/06/11 04:34:43;;;;;;;9.93;5.40;;;19.10;99.90;;;;;;4970863;28;20420;-79
2023/06/11 04:37:09;;;;;;;9.67;5.00;;;19.30;1.00;;;;;;4972554;28;20396;-79
2023/06/11 04:39:35;;;;;;;11.60;5.68;;;19.30;99.90;;;;;;4973239;28;20487;-79
2023/06/11 04:42:02;;;;;;;10.50;5.50;;;19.50;1.00;;;;;;4988583;28;20404;-79
2023/06/11 04:44:28;;;;;;;10.85;5.40;;;19.60;99.90;;;;;;4994302;28;20409;-79
2023/06/11 04:46:57;;;;;;;11.60;5.20;;;19.70;99.90;;;;;;5000040;28;20419;-79
2023/06/11 04:49:23;;;;;;;11.48;6.00;;;19.80;1.00;;;;;;4994724;28;20361;-79
2023/06/11 04:51:48;;;;;;;12.07;6.33;;;19.90;1.00;;;;;;4995858;28;20420;-79
2023/06/11 04:54:17;;;;;;;11.10;6.20;;;20.10;1.00;;;;;;4996352;28;20419;-79
2023/06/11 04:56:43;;;;;;;11.77;6.10;;;20.50;1.00;;;;;;4979876;28;20404;-79
2023/06/11 04:59:08;;;;;;;10.27;5.40;;;21.20;1.00;;;;;;4972862;28;20397;-79
2023/06/11 05:01:37;;;;;;;11.57;5.33;;;22.10;99.90;;;;;;4976283;28;20414;-79
2023/06/11 05:04:02;;;;;;;10.50;5.20;;;23.10;1.00;;;;;;4977540;28;20384;-79
2023/06/11 05:06:30;;;;;;;10.25;4.88;;;24.40;1.00;;;;;;4973368;28;20475;-77
2023/06/11 05:08:56;;;;;;;9.80;5.30;;;25.30;1.00;;;;;;4970613;28;20415;-77
2023/06/11 05:11:21;;;;;;;10.10;5.33;;;25.80;99.90;;;;;;4969051;28;20416;-77
2023/06/11 05:13:47;;;;;;;9.50;4.90;;;25.90;99.90;;;;;;4971405;28;20410;-77
2023/06/11 05:16:12;;;;;;;11.00;5.30;;;26.10;99.90;;;;;;4968462;28;20989;-77
2023/06/11 05:18:38;;;;;;;10.00;5.00;;;26.30;99.90;;;;;;4969441;28;20408;-77
2023/06/11 05:21:05;;;;;;;10.32;4.63;;;26.60;99.90;;;;;;4969860;28;20468;-77
2023/06/11 05:23:31;;;;;;;12.35;5.00;;;26.80;99.90;;;;;;4970924;28;20479;-77
2023/06/11 05:26:08;;;;;;;9.48;5.18;;;26.90;99.90;;;;;;4970327;28;20777;-77
2023/06/11 05:28:34;;;;;;;9.43;4.80;;;27.20;99.90;;;;;;4979578;28;20413;-79
2023/06/11 05:31:02;;;;;;;11.40;5.20;;;28.20;99.90;;;;;;4978558;28;20844;-79
2023/06/11 05:33:28;;;;;;;8.77;4.47;;;28.70;99.90;;;;;;4983313;28;20427;-79
2023/06/11 05:35:55;;;;;;;8.70;4.60;;;28.60;99.90;;;;;;4984480;28;20428;-79
2023/06/11 05:38:21;;;;;;;9.95;5.70;;;28.80;99.90;;;;;;4983668;28;20416;-79
2023/06/11 05:40:46;;;;;;;9.23;4.95;;;29.30;99.90;;;;;;4976936;28;20400;-80
2023/06/11 05:43:12;;;;;;;10.45;5.70;;;29.90;99.90;;;;;;4975714;28;20463;-80
2023/06/11 05:45:49;;;;;;;9.17;4.70;;;30.10;99.90;;;;;;4974262;28;20455;-80
2023/06/11 05:48:15;;;;;;;8.93;4.57;;;30.30;99.90;;;;;;4985813;28;20398;-80
2023/06/11 05:50:41;;;;;;;8.90;4.85;;;30.40;99.90;;;;;;4989110;28;20402;-77
2023/06/11 05:53:08;;;;;;;8.88;5.13;;;31.20;99.90;;;;;;4972190;28;20980;-77
2023/06/11 05:55:33;;;;;;;10.13;4.80;;;30.80;99.90;;;;;;4976508;28;20955;-79
2023/06/11 05:57:59;;;;;;;10.50;5.00;;;30.40;99.90;;;;;;4976490;28;20436;-79
2023/06/11 06:00:25;;;;;;;10.93;5.30;;;30.70;99.90;;;;;;4970403;28;20907;-77
2023/06/11 06:02:51;;;;;;;10.27;5.00;;;31.10;99.90;;;;;;4967270;28;20417;-78
2023/06/11 06:05:16;;;;;;;9.95;4.93;;;31.20;99.90;;;;;;4970042;28;20420;-78
2023/06/11 06:07:42;;;;;;;9.50;4.90;;;31.70;99.90;;;;;;4990744;28;20413;-78
2023/06/11 06:10:08;;;;;;;9.53;4.80;;;31.80;99.90;;;;;;4991903;28;20439;-78
2023/06/11 06:12:34;;;;;;;9.52;4.80;;;32.00;99.90;;;;;;4983177;28;20430;-78
2023/06/11 06:15:07;;;;;;;10.68;5.30;;;31.50;99.90;;;;;;4988725;28;20447;-78
2023/06/11 06:17:39;;;;;;;8.97;4.77;;;31.80;99.90;;;;;;4990924;28;20423;-78
2023/06/11 06:20:17;;;;;;;10.10;5.00;;;31.60;99.90;;;;;;4989283;28;20423;-78
2023/06/11 06:22:44;;;;;;;9.70;5.05;;;31.10;99.90;;;;;;4988756;28;20447;-79
2023/06/11 06:25:09;;;;;;;9.38;4.60;;;30.80;99.90;;;;;;4984674;28;20376;-79
2023/06/11 06:27:35;;;;;;;10.13;4.90;;;31.00;99.90;;;;;;4990442;28;20447;-79
2023/06/11 06:30:01;;;;;;;10.20;5.00;;;31.80;99.90;;;;;;4988373;28;20412;-79
2023/06/11 06:32:28;;;;;;;9.05;4.78;;;32.20;99.90;;;;;;4989037;28;20424;-79
2023/06/11 06:34:54;;;;;;;9.23;4.82;;;32.60;99.90;;;;;;4991722;28;20463;-79
2023/06/11 06:37:20;;;;;;;9.88;4.90;;;33.00;99.90;;;;;;4994098;28;20395;-81
2023/06/11 06:39:46;;;;;;;9.43;5.03;;;33.40;99.90;;;;;;4991484;28;20410;-78
2023/06/11 06:42:11;;;;;;;9.05;5.20;;;33.60;99.90;;;;;;4976792;28;20418;-78
2023/06/11 06:44:37;;;;;;;8.80;4.80;;;33.80;99.90;;;;;;4980295;28;20420;-78
2023/06/11 06:47:03;;;;;;;10.80;5.40;;;33.50;99.90;;;;;;4956119;28;20404;-78
2023/06/11 06:49:29;;;;;;;10.07;5.75;;;33.60;99.90;;;;;;4972554;28;20442;-78
2023/06/11 06:51:55;;;;;;;9.60;5.00;;;33.40;99.90;;;;;;4972609;28;20418;-79
2023/06/11 06:54:20;;;;;;;9.70;4.40;;;33.80;99.90;;;;;;4971245;28;20400;-79
2023/06/11 06:56:49;;;;;;;8.93;5.20;;;33.70;99.90;;;;;;4973275;28;20400;-79
2023/06/11 06:59:14;;;;;;;9.10;5.05;;;33.80;99.90;;;;;;4965462;28;20405;-79
2023/06/11 07:01:40;;;;;;;9.90;5.30;;;33.80;99.90;;;;;;4984462;28;20482;-79
2023/06/11 07:04:07;;;;;;;8.50;4.60;;;33.60;99.90;;;;;;4976892;28;22594;-79
2023/06/11 07:06:36;;;;;;;9.60;5.60;;;33.30;99.90;;;;;;4969068;28;20455;-79
2023/06/11 07:09:03;;;;;;;11.90;5.63;;;32.40;99.90;;;;;;4972690;28;20409;-79
2023/06/11 07:11:29;;;;;;;9.63;5.95;;;30.90;99.90;;;;;;4955905;28;20475;-79
2023/06/11 07:13:55;;;;;;;10.10;5.40;;;30.60;99.90;;;;;;4967331;28;20425;-79
2023/06/11 07:16:21;;;;;;;8.90;4.90;;;31.20;99.90;;;;;;4962309;28;20422;-79
2023/06/11 07:18:46;;;;;;;11.55;5.10;;;31.50;99.90;;;;;;4969452;28;20503;-79
2023/06/11 07:21:12;;;;;;;9.45;4.80;;;31.40;99.90;;;;;;4965850;28;20416;-79
2023/06/11 07:23:38;;;;;;;10.18;5.10;;;31.40;99.90;;;;;;4963801;28;20404;-79
2023/06/11 07:26:05;;;;;;;11.95;5.28;;;31.30;99.90;;;;;;4978362;28;20729;-79
2023/06/11 07:28:30;;;;;;;9.55;4.57;;;31.70;99.90;;;;;;4971107;28;20424;-79
2023/06/11 07:30:56;;;;;;;11.00;5.33;;;31.90;99.90;;;;;;4960944;28;20398;-79
2023/06/11 07:33:21;;;;;;;10.17;4.80;;;31.50;99.90;;;;;;4968410;28;20467;-79
2023/06/11 07:35:49;;;;;;;9.60;4.60;;;31.30;99.90;;;;;;4971721;28;20431;-78
2023/06/11 07:38:16;;;;;;;9.88;5.05;;;31.70;99.90;;;;;;4972170;28;20429;-79
2023/06/11 07:40:42;;;;;;;13.48;4.90;;;32.50;99.90;;;;;;4964994;28;20417;-79
2023/06/11 07:43:07;;;;;;;10.10;5.28;;;33.00;99.90;;;;;;4962214;28;21456;-79
2023/06/11 07:45:33;;;;;;;10.30;5.30;;;33.00;99.90;;;;;;4959894;28;20584;-79
2023/06/11 07:47:58;;;;;;;9.53;5.20;;;33.90;99.90;;;;;;4968455;28;20462;-79
2023/06/11 07:50:25;;;;;;;9.53;5.17;;;34.00;99.90;;;;;;4968045;28;20414;-79
2023/06/11 07:52:52;;;;;;;9.10;4.90;;;34.30;99.90;;;;;;4965371;28;20425;-79
2023/06/11 07:55:18;;;;;;;9.40;5.07;;;34.60;99.90;;;;;;4961372;28;20406;-79
2023/06/11 07:57:43;;;;;;;9.47;5.10;;;34.90;99.90;;;;;;4970552;28;20418;-79
2023/06/11 08:00:12;;;;;;;10.10;5.60;;;35.10;99.90;;;;;;4956886;28;20413;-80
2023/06/11 08:02:42;;;;;;;9.20;5.00;;;34.30;99.90;;;;;;4965662;28;20412;-79
2023/06/11 08:05:11;;;;;;;10.40;5.78;;;34.40;99.90;;;;;;4948842;28;20972;-79
2023/06/11 08:07:37;;;;;;;10.30;4.85;;;34.20;99.90;;;;;;4967902;28;20793;-79
2023/06/11 08:10:03;;;;;;;9.57;5.32;;;34.10;99.90;;;;;;4968257;28;20574;-80
2023/06/11 08:12:28;;;;;;;10.03;5.30;;;34.20;99.90;;;;;;4968433;28;20996;-80
2023/06/11 08:14:54;;;;;;;9.80;5.00;;;34.80;99.90;;;;;;4962312;28;20473;-79
2023/06/11 08:17:19;;;;;;;11.02;5.30;;;35.30;99.90;;;;;;4971089;28;20409;-79
2023/06/11 08:19:45;;;;;;;9.43;5.40;;;35.30;99.90;;;;;;4966201;28;20401;-79
2023/06/11 08:22:11;;;;;;;9.10;4.80;;;34.70;99.90;;;;;;4966781;28;20428;-79
2023/06/11 08:24:37;;;;;;;9.67;5.37;;;34.90;99.90;;;;;;4969211;28;20404;-79
2023/06/11 08:27:02;;;;;;;8.88;4.90;;;35.30;99.90;;;;;;4967513;28;20414;-79
2023/06/11 08:29:29;;;;;;;10.23;4.93;;;35.40;99.90;;;;;;4965953;28;20557;-79
2023/06/11 08:31:54;;;;;;;9.15;5.00;;;35.40;99.90;;;;;;4974398;28;20445;-79
2023/06/11 08:34:20;;;;;;;10.88;5.30;;;35.50;99.90;;;;;;4969177;28;20931;-79
2023/06/11 08:36:45;;;;;;;10.03;5.13;;;34.90;99.90;;;;;;4958230;28;20420;-80
2023/06/11 08:39:11;;;;;;;8.87;4.80;;;35.20;99.90;;;;;;4966803;28;20404;-80
2023/06/11 08:41:37;;;;;;;9.15;5.00;;;35.90;99.90;;;;;;4962132;28;20443;-81
2023/06/11 08:44:03;;;;;;;9.68;5.25;;;36.50;99.90;;;;;;4968005;28;20422;-80
2023/06/11 08:46:35;;;;;;;9.50;5.30;;;35.30;99.90;;;;;;4971361;28;20418;-80
2023/06/11 08:49:06;;;;;;;9.55;4.80;;;35.50;99.90;;;;;;4969873;28;20418;-80
2023/06/11 08:51:38;;;;;;;10.20;5.30;;;36.30;99.90;;;;;;4963622;28;20769;-80
2023/06/11 08:54:08;;;;;;;10.23;5.35;;;35.20;99.90;;;;;;4971331;28;20807;-80
2023/06/11 08:56:36;;;;;;;9.88;5.10;;;34.60;99.90;;;;;;4966950;28;20756;-80
2023/06/11 08:59:02;;;;;;;8.95;4.95;;;35.00;99.90;;;;;;4972031;28;20420;-79
2023/06/11 09:01:32;;;;;;;9.30;5.32;;;34.80;99.90;;;;;;4957629;28;20481;-81
2023/06/11 09:03:59;;;;;;;12.57;5.07;;;35.20;99.90;;;;;;4958669;28;20435;-80
2023/06/11 09:06:27;;;;;;;8.82;4.70;;;35.40;99.90;;;;;;4965458;28;21010;-79
2023/06/11 09:09:05;;;;;;;10.45;4.75;;;34.40;99.90;;;;;;4966245;28;20405;-79
2023/06/11 09:11:35;;;;;;;8.80;4.80;;;34.00;99.90;;;;;;4959033;28;21067;-79
2023/06/11 09:14:02;;;;;;;8.40;4.50;;;34.70;99.90;;;;;;4969743;28;20428;-79
2023/06/11 09:16:28;;;;;;;9.18;4.70;;;35.80;99.90;;;;;;4974015;28;20494;-80
2023/06/11 09:18:56;;;;;;;9.90;5.90;;;35.50;99.90;;;;;;4974415;28;20443;-79
2023/06/11 09:21:24;;;;;;;9.27;4.65;;;35.10;99.90;;;;;;4981473;28;20401;-80
2023/06/11 09:23:49;;;;;;;10.13;5.38;;;35.30;99.90;;;;;;4977456;28;20382;-79
2023/06/11 09:26:17;;;;;;;9.45;4.90;;;35.70;99.90;;;;;;4987119;28;20476;-80
2023/06/11 09:28:43;;;;;;;8.05;4.15;;;36.20;99.90;;;;;;4975376;28;20398;-80
2023/06/11 09:31:10;;;;;;;9.50;4.40;;;36.80;99.90;;;;;;4985679;28;21546;-80
2023/06/11 09:33:36;;;;;;;10.10;4.73;;;36.50;99.90;;;;;;4974214;28;20440;-79
2023/06/11 09:36:02;;;;;;;10.60;4.55;;;37.20;99.90;;;;;;4973140;28;20490;-79
2023/06/11 09:38:31;;;;;;;10.30;5.40;;;37.30;99.90;;;;;;4975879;28;20435;-80
2023/06/11 09:40:57;;;;;;;10.00;4.20;;;37.40;99.90;;;;;;4973142;28;20421;-80
2023/06/11 09:43:24;;;;;;;9.48;4.95;;;36.00;99.90;;;;;;4976208;28;20419;-79
2023/06/11 09:45:52;;;;;;;9.23;4.72;;;35.40;99.90;;;;;;4967803;28;20497;-78
2023/06/11 09:48:24;;;;;;;10.67;4.33;;;35.40;99.90;;;;;;4972715;28;20416;-78
2023/06/11 09:50:52;;;;;;;9.15;5.18;;;35.70;99.90;;;;;;4967134;28;20416;-80
2023/06/11 09:53:19;;;;;;;8.75;4.78;;;35.20;99.90;;;;;;4966441;28;20433;-80
2023/06/11 09:55:48;;;;;;;9.65;4.20;;;35.50;99.90;;;;;;4971690;28;20416;-80
2023/06/11 09:58:16;;;;;;;9.93;4.95;;;35.90;99.90;;;;;;4968515;28;20414;-80
2023/06/11 10:00:43;;;;;;;8.18;4.53;;;36.50;99.90;;;;;;4960762;28;20414;-80
2023/06/11 10:03:08;;;;;;;8.60;4.95;;;36.70;99.90;;;;;;4965490;28;20402;-80
2023/06/11 10:05:35;;;;;;;10.50;4.80;;;36.30;99.90;;;;;;4967482;28;20421;-80
2023/06/11 10:08:15;;;;;;;8.98;4.00;;;36.00;99.90;;;;;;4961703;28;20398;-80
2023/06/11 10:10:45;;;;;;;9.32;5.20;;;36.10;99.90;;;;;;4973562;28;20425;-80
2023/06/11 10:13:11;;;;;;;8.80;4.50;;;36.20;99.90;;;;;;4963406;28;20529;-79
2023/06/11 10:15:38;;;;;;;10.57;4.57;;;35.40;99.90;;;;;;4966636;28;21838;-80
2023/06/11 10:18:14;;;;;;;8.60;4.60;;;34.80;99.90;;;;;;4965364;28;20425;-80
2023/06/11 10:20:52;;;;;;;10.02;3.80;;;34.60;99.90;;;;;;4964696;28;20415;-80
2023/06/11 10:23:18;;;;;;;8.93;4.35;;;34.60;99.90;;;;;;4968276;28;20403;-80
2023/06/11 10:25:54;;;;;;;8.90;4.50;;;35.00;99.90;;;;;;4974923;28;20464;-80
2023/06/11 10:28:22;;;;;;;9.30;4.60;;;35.20;99.90;;;;;;4952906;28;20492;-80
2023/06/11 10:30:54;;;;;;;9.02;3.85;;;34.70;99.90;;;;;;4961051;28;20816;-80
2023/06/11 10:33:21;;;;;;;8.77;3.95;;;33.60;99.90;;;;;;4967666;28;20424;-79
2023/06/11 10:35:47;;;;;;;7.97;3.80;;;33.00;99.90;;;;;;4973286;28;20596;-79
2023/06/11 10:38:15;;;;;;;8.47;3.60;;;33.10;99.90;;;;;;4966150;28;20488;-78
2023/06/11 10:40:41;;;;;;;9.15;3.95;;;32.90;99.90;;;;;;4967820;28;21003;-79
2023/06/11 10:43:35;;;;;;;8.18;3.80;;;32.10;99.90;;;;;;4965091;28;20482;-79
2023/06/11 10:46:11;;;;;;;8.93;4.30;;;31.60;99.90;;;;;;4965042;28;20516;-79
2023/06/11 10:48:43;;;;;;;12.98;4.90;;;31.40;99.90;;;;;;4973625;28;20443;-78
2023/06/11 10:51:13;;;;;;;10.98;4.70;;;30.90;99.90;;;;;;4976550;28;20408;-79
2023/06/11 10:53:40;;;;;;;9.52;5.05;;;30.90;99.90;;;;;;4977916;28;20430;-79
2023/06/11 10:56:12;;;;;;;12.13;5.20;;;30.90;99.90;;;;;;4979545;28;20406;-80
2023/06/11 10:58:38;;;;;;;8.93;4.43;;;31.10;99.90;;;;;;4984205;28;20408;-80
2023/06/11 11:01:08;;;;;;;11.88;4.60;;;31.30;99.90;;;;;;4980200;28;20408;-79
2023/06/11 11:03:34;;;;;;;8.70;4.40;;;31.20;99.90;;;;;;4978348;28;20470;-76
2023/06/11 11:06:00;;;;;;;9.88;4.60;;;31.40;99.90;;;;;;4973593;28;20503;-79
2023/06/11 11:08:26;;;;;;;8.70;4.40;;;30.80;99.90;;;;;;4974949;28;20400;-79
2023/06/11 11:10:55;;;;;;;10.70;4.57;;;30.80;99.90;;;;;;4970716;28;20588;-79
2023/06/11 11:13:21;;;;;;;11.52;4.38;;;31.10;99.90;;;;;;4976873;28;20431;-79
2023/06/11 11:15:46;;;;;;;10.67;4.50;;;31.20;99.90;;;;;;4975929;28;20412;-79
2023/06/11 11:18:12;;;;;;;9.43;4.50;;;31.30;99.90;;;;;;4978579;28;20411;-79
2023/06/11 11:20:38;;;;;;;10.33;4.63;;;31.00;99.90;;;;;;4983631;28;20438;-80
2023/06/11 11:23:06;;;;;;;9.67;4.53;;;31.10;99.90;;;;;;4979308;28;20403;-79
2023/06/11 11:25:32;;;;;;;10.23;4.60;;;31.20;99.90;;;;;;4979262;28;20410;-79
2023/06/11 11:27:58;;;;;;;10.05;4.72;;;30.80;99.90;;;;;;4976889;28;20419;-79
2023/06/11 11:30:24;;;;;;;11.80;4.45;;;30.60;99.90;;;;;;4975613;28;20829;-79
2023/06/11 11:32:53;;;;;;;11.20;4.68;;;30.90;99.90;;;;;;4977923;28;20458;-81
2023/06/11 11:35:21;;;;;;;9.30;5.03;;;31.10;99.90;;;;;;4981893;28;20869;-78
2023/06/11 11:37:50;;;;;;;8.85;4.40;;;31.00;99.90;;;;;;4981916;28;20400;-80
2023/06/11 11:40:19;;;;;;;11.05;5.10;;;31.20;99.90;;;;;;4980749;28;20527;-80
2023/06/11 11:42:52;;;;;;;8.40;4.82;;;31.00;99.90;;;;;;4968149;28;20434;-81
2023/06/11 11:45:19;;;;;;;10.18;5.20;;;31.00;99.90;;;;;;4974388;28;20956;-80
2023/06/11 11:47:52;;;;;;;8.98;4.40;;;31.00;99.90;;;;;;4979631;28;20405;-80
2023/06/11 11:50:30;;;;;;;9.68;4.78;;;30.90;99.90;;;;;;4978901;28;20830;-80
2023/06/11 11:53:04;;;;;;;9.70;4.70;;;30.70;99.90;;;;;;4972524;28;20424;-81
2023/06/11 11:55:32;;;;;;;10.13;5.15;;;31.00;99.90;;;;;;4975860;28;20393;-81
2023/06/11 11:58:09;;;;;;;9.90;5.38;;;31.20;99.90;;;;;;4975927;28;20400;-81
2023/06/11 12:00:37;;;;;;;9.35;5.15;;;31.30;99.90;;;;;;4976773;28;20392;-80
2023/06/11 12:03:08;;;;;;;8.75;4.70;;;31.60;99.90;;;;;;4974152;28;20420;-82
2023/06/11 12:05:34;;;;;;;9.20;5.20;;;31.20;99.90;;;;;;4973964;28;20487;-81
2023/06/11 12:07:59;;;;;;;11.30;6.03;;;30.90;99.90;;;;;;4956849;28;20508;-80
2023/06/11 12:10:26;;;;;;;9.77;5.37;;;30.60;99.90;;;;;;4975943;28;20419;-79
2023/06/11 12:12:53;;;;;;;10.33;5.40;;;30.50;99.90;;;;;;4980227;28;20426;-80
2023/06/11 12:15:20;;;;;;;9.88;4.80;;;30.60;99.90;;;;;;4977589;28;20458;-80
2023/06/11 12:17:45;;;;;;;11.43;5.45;;;30.50;99.90;;;;;;4972927;28;20908;-81
2023/06/11 12:20:12;;;;;;;10.15;5.85;;;30.50;99.90;;;;;;4978778;28;20404;-80
2023/06/11 12:22:38;;;;;;;9.77;5.93;;;30.50;99.90;;;;;;4974523;28;20475;-81
2023/06/11 12:25:04;;;;;;;11.52;5.07;;;30.30;99.90;;;;;;4973725;28;20404;-80
2023/06/11 12:27:30;;;;;;;9.77;4.60;;;30.30;99.90;;;;;;4959290;28;20416;-81
2023/06/11 12:29:55;;;;;;;10.17;4.83;;;30.20;99.90;;;;;;4956619;28;20798;-80
2023/06/11 12:32:21;;;;;;;9.97;5.00;;;30.50;99.90;;;;;;4959462;28;20453;-80
2023/06/11 12:34:47;;;;;;;11.90;4.50;;;30.30;99.90;;;;;;4960387;28;20433;-80
2023/06/11 12:37:14;;;;;;;8.95;4.63;;;30.20;99.90;;;;;;4968958;28;20413;-80
2023/06/11 12:39:43;;;;;;;7.82;4.00;;;30.50;99.90;;;;;;4960923;28;20497;-81
2023/06/11 12:42:15;;;;;;;13.50;5.30;;;30.70;99.90;;;;;;4977201;28;21006;-81
2023/06/11 12:44:46;;;;;;;13.95;4.90;;;30.90;99.90;;;;;;4978635;28;20440;-80